Time;durP1;ratioP1;P1;durP2;ratioP2;P2;SDS_P1;SDS_P2;PMS_P1;PMS_P2;Temp;Humidity;BMP_temperature;BMP_pressure;BME280_temperature;BME280_humidity;BME280_pressure;Samples;Min_cycle;Max_cycle;Signal;HPM_P1;HPM_P2
2021/06/01 00:00:37;;;;;;;;;;;7.90;99.90;;;;;;5092782;28;19915;-71
2021/06/01 00:03:03;;;;;;;;;;;7.80;99.90;;;;;;5092666;28;21024;-71
2021/06/01 00:05:28;;;;;;;;;;;7.90;99.90;;;;;;5087842;28;20005;-72
2021/06/01 00:07:53;;;;;;;;;;;7.90;99.90;;;;;;5091381;28;19915;-74
2021/06/01 00:10:19;;;;;;;;;;;7.90;99.90;;;;;;5092563;28;19916;-71
2021/06/01 00:12:44;;;;;;;;;;;7.80;99.90;;;;;;5092540;28;19969;-71
2021/06/01 00:15:10;;;;;;;;;;;7.80;99.90;;;;;;5092489;28;20323;-74
2021/06/01 00:17:37;;;;;;;;;;;7.80;99.90;;;;;;5091676;28;20346;-75
2021/06/01 00:20:04;;;;;;;;;;;7.70;99.90;;;;;;5092292;28;19997;-73
2021/06/01 00:22:29;;;;;;;;;;;7.70;99.90;;;;;;5092214;28;20353;-70
2021/06/01 00:24:55;;;;;;;;;;;7.70;99.90;;;;;;5092462;28;19959;-70
2021/06/01 00:27:20;;;;;;;;;;;7.70;99.90;;;;;;5091392;28;19909;-72
2021/06/01 00:29:46;;;;;;;;;;;7.70;99.90;;;;;;5092083;28;19957;-71
2021/06/01 00:32:11;;;;;;;;;;;7.70;99.90;;;;;;5091721;28;19911;-71
2021/06/01 00:34:37;;;;;;;;;;;7.70;99.90;;;;;;5092001;28;19970;-71
2021/06/01 00:37:02;;;;;;;;;;;7.60;99.90;;;;;;5094409;28;19912;-76
2021/06/01 00:39:28;;;;;;;;;;;7.50;99.90;;;;;;5113373;28;19912;-71
2021/06/01 00:41:53;;;;;;;;;;;7.50;99.90;;;;;;5112339;28;20364;-71
2021/06/01 00:44:19;;;;;;;;;;;7.40;99.90;;;;;;5112412;28;19954;-71
2021/06/01 00:46:44;;;;;;;;;;;7.40;99.90;;;;;;5112554;28;20318;-71
2021/06/01 00:49:10;;;;;;;;;;;7.40;99.90;;;;;;5113486;28;20128;-71
2021/06/01 00:51:35;;;;;;;;;;;7.40;99.90;;;;;;5113716;28;19920;-71
2021/06/01 00:54:01;;;;;;;;;;;7.30;99.90;;;;;;5112791;28;19915;-74
2021/06/01 00:56:27;;;;;;;;;;;7.30;99.90;;;;;;5111750;28;19946;-73
2021/06/01 00:58:52;;;;;;;;;;;7.30;99.90;;;;;;5112333;28;19943;-71
2021/06/01 01:01:21;;;;;;;;;;;7.20;99.90;;;;;;5112417;28;20375;-71
2021/06/01 01:03:47;;;;;;;;;;;7.10;99.90;;;;;;5111914;28;19919;-71
2021/06/01 01:06:17;;;;;;;;;;;7.00;99.90;;;;;;5093827;28;20124;-71
2021/06/01 01:11:30;;;;;;;;;;;6.90;99.90;;;;;;5091760;28;19912;-72
2021/06/01 01:14:01;;;;;;;;;;;6.90;99.90;;;;;;5091631;28;19912;-72
2021/06/01 01:16:28;;;;;;;;;;;6.90;99.90;;;;;;5091294;28;20051;-71
2021/06/01 01:18:57;;;;;;;;;;;6.80;99.90;;;;;;5091217;28;20660;-72
2021/06/01 01:21:22;;;;;;;;;;;6.80;99.90;;;;;;5091682;28;19952;-70
2021/06/01 01:23:52;;;;;;;;;;;6.80;99.90;;;;;;5091478;28;19953;-71
2021/06/01 01:26:38;;;;;;;;;;;6.80;99.90;;;;;;5090572;28;19909;-71
2021/06/01 01:29:09;;;;;;;;;;;6.70;99.90;;;;;;5091425;28;20002;-73
2021/06/01 01:31:37;;;;;;;;;;;6.70;99.90;;;;;;5091545;28;19912;-71
2021/06/01 01:34:04;;;;;;;;;;;6.70;99.90;;;;;;5091160;28;19958;-71
2021/06/01 01:36:30;;;;;;;;;;;6.80;99.90;;;;;;5090726;28;20381;-75
2021/06/01 01:38:56;;;;;;;;;;;6.80;99.90;;;;;;5087634;28;19912;-71
2021/06/01 01:41:22;;;;;;;;;;;6.80;99.90;;;;;;5087654;28;19923;-74
2021/06/01 01:43:51;;;;;;;;;;;6.70;99.90;;;;;;5094069;28;19924;-75
2021/06/01 01:49:01;;;;;;;;;;;6.70;99.90;;;;;;5095453;28;19952;-71
2021/06/01 01:51:32;;;;;;;;;;;6.70;99.90;;;;;;5095566;28;20003;-71
2021/06/01 01:53:59;;;;;;;;;;;6.70;99.90;;;;;;5095312;28;20530;-71
2021/06/01 01:56:37;;;;;;;;;;;6.60;99.90;;;;;;5094466;28;19908;-72
2021/06/01 01:59:08;;;;;;;;;;;6.60;99.90;;;;;;5095195;28;19947;-71
2021/06/01 02:01:34;;;;;;;;;;;6.50;99.90;;;;;;5095325;28;19912;-71
2021/06/01 02:04:00;;;;;;;;;;;6.50;99.90;;;;;;5094825;28;19916;-71
2021/06/01 02:06:26;;;;;;;;;;;6.40;99.90;;;;;;5094324;28;20365;-71
2021/06/01 02:08:52;;;;;;;;;;;6.40;99.90;;;;;;5091595;28;19954;-71
2021/06/01 02:11:18;;;;;;;;;;;6.30;99.90;;;;;;5095045;28;19916;-71
2021/06/01 02:13:49;;;;;;;;;;;6.30;99.90;;;;;;5094968;28;19908;-71
2021/06/01 02:16:15;;;;;;;;;;;6.30;99.90;;;;;;5094160;28;19909;-72
2021/06/01 02:18:41;;;;;;;;;;;6.20;99.90;;;;;;5094658;28;19915;-76
2021/06/01 02:21:18;;;;;;;;;;;6.10;99.90;;;;;;5094573;28;19908;-74
2021/06/01 02:23:50;;;;;;;;;;;6.10;99.90;;;;;;5094774;28;19917;-72
2021/06/01 02:26:19;;;;;;;;;;;6.10;99.90;;;;;;5094267;28;20061;-71
2021/06/01 02:28:47;;;;;;;;;;;6.10;99.90;;;;;;5094720;28;20366;-70
2021/06/01 02:31:24;;;;;;;;;;;6.10;99.90;;;;;;5094570;28;19912;-72
2021/06/01 02:33:51;;;;;;;;;;;6.10;99.90;;;;;;5094136;28;19950;-71
2021/06/01 02:36:17;;;;;;;;;;;6.10;99.90;;;;;;5093922;28;19957;-71
2021/06/01 02:38:42;;;;;;;;;;;6.00;99.90;;;;;;5094100;28;19934;-71
2021/06/01 02:41:09;;;;;;;;;;;6.00;99.90;;;;;;5094324;28;19916;-72
2021/06/01 02:43:34;;;;;;;;;;;6.00;99.90;;;;;;5094463;28;19938;-71
2021/06/01 02:46:00;;;;;;;;;;;5.90;99.90;;;;;;5093967;28;19908;-71
2021/06/01 02:48:26;;;;;;;;;;;5.90;99.90;;;;;;5093926;28;19920;-72
2021/06/01 02:50:53;;;;;;;;;;;5.80;99.90;;;;;;5094229;28;20360;-72
2021/06/01 02:53:20;;;;;;;;;;;5.80;99.90;;;;;;5092957;28;19995;-72
2021/06/01 02:55:45;;;;;;;;;;;5.90;99.90;;;;;;5092740;28;20115;-71
2021/06/01 02:58:12;;;;;;;;;;;5.90;99.90;;;;;;5094434;28;19914;-71
2021/06/01 03:00:38;;;;;;;;;;;5.90;99.90;;;;;;5094123;28;19908;-71
2021/06/01 03:03:04;;;;;;;;;;;5.90;99.90;;;;;;5093829;28;19908;-71
2021/06/01 03:05:31;;;;;;;;;;;5.80;99.90;;;;;;5093545;28;20265;-74
2021/06/01 03:08:04;;;;;;;;;;;5.80;99.90;;;;;;5089458;28;19912;-71
2021/06/01 03:10:30;;;;;;;;;;;5.70;99.90;;;;;;5093867;28;20361;-74
2021/06/01 03:12:59;;;;;;;;;;;5.70;99.90;;;;;;5093897;28;19951;-71
2021/06/01 03:15:24;;;;;;;;;;;5.70;99.90;;;;;;5093272;28;19991;-71
2021/06/01 03:17:50;;;;;;;;;;;5.70;99.90;;;;;;5092967;28;19998;-76
2021/06/01 03:20:16;;;;;;;;;;;5.60;99.90;;;;;;5093243;28;20381;-71
2021/06/01 03:22:41;;;;;;;;;;;5.60;99.90;;;;;;5093669;28;19908;-71
2021/06/01 03:25:07;;;;;;;;;;;5.60;99.90;;;;;;5093624;28;19912;-72
2021/06/01 03:27:32;;;;;;;;;;;5.50;99.90;;;;;;5092911;28;20432;-73
2021/06/01 03:29:58;;;;;;;;;;;5.50;99.90;;;;;;5093152;28;20003;-71
2021/06/01 03:32:24;;;;;;;;;;;5.40;99.90;;;;;;5093552;28;19912;-71
2021/06/01 03:34:49;;;;;;;;;;;5.30;99.90;;;;;;5093177;28;19952;-71
2021/06/01 03:37:15;;;;;;;;;;;5.30;99.90;;;;;;5088927;28;19908;-76
2021/06/01 03:39:40;;;;;;;;;;;5.30;99.90;;;;;;5113285;28;20355;-71
2021/06/01 03:42:11;;;;;;;;;;;5.30;99.90;;;;;;5113537;28;19922;-71
2021/06/01 03:44:37;;;;;;;;;;;5.40;99.90;;;;;;5113408;28;19918;-71
2021/06/01 03:47:03;;;;;;;;;;;5.40;99.90;;;;;;5112785;28;20292;-74
2021/06/01 03:49:29;;;;;;;;;;;5.40;99.90;;;;;;5113388;28;20392;-73
2021/06/01 03:51:54;;;;;;;;;;;5.50;99.90;;;;;;5113368;28;19955;-71
2021/06/01 03:54:20;;;;;;;;;;;5.50;99.90;;;;;;5113301;28;19974;-71
2021/06/01 03:56:45;;;;;;;;;;;5.50;99.90;;;;;;5112630;28;19912;-71
2021/06/01 03:59:11;;;;;;;;;;;5.50;99.90;;;;;;5113111;28;20410;-71
2021/06/01 04:01:36;;;;;;;;;;;5.40;99.90;;;;;;5113458;28;20360;-70
2021/06/01 04:04:02;;;;;;;;;;;5.40;99.90;;;;;;5112816;28;19907;-71
2021/06/01 04:06:27;;;;;;;;;;;5.50;99.90;;;;;;5111214;28;20261;-74
2021/06/01 04:08:53;;;;;;;;;;;5.50;99.90;;;;;;5092079;28;20403;-71
2021/06/01 04:11:18;;;;;;;;;;;5.50;99.90;;;;;;5109923;28;19919;-71
2021/06/01 04:13:44;;;;;;;;;;;5.60;99.90;;;;;;5112917;28;19911;-72
2021/06/01 04:16:09;;;;;;;;;;;5.70;99.90;;;;;;5112155;28;19911;-71
2021/06/01 04:18:35;;;;;;;;;;;5.80;99.90;;;;;;5112541;28;19914;-71
2021/06/01 04:21:00;;;;;;;;;;;5.90;99.90;;;;;;5112799;28;19930;-71
2021/06/01 04:23:26;;;;;;;;;;;6.10;99.90;;;;;;5112771;28;19912;-74
2021/06/01 04:25:51;;;;;;;;;;;6.20;99.90;;;;;;5111906;28;19919;-70
2021/06/01 04:28:17;;;;;;;;;;;6.20;99.90;;;;;;5112343;28;19953;-70
2021/06/01 04:30:44;;;;;;;;;;;6.40;99.90;;;;;;5112345;28;20420;-71
2021/06/01 04:33:13;;;;;;;;;;;6.50;99.90;;;;;;5112492;28;20323;-73
2021/06/01 04:35:39;;;;;;;;;;;6.50;99.90;;;;;;5111661;28;19908;-71
2021/06/01 04:38:04;;;;;;;;;;;6.60;99.90;;;;;;5098377;28;19930;-72
2021/06/01 04:40:30;;;;;;;;;;;6.70;99.90;;;;;;5091810;28;19962;-71
2021/06/01 04:42:55;;;;;;;;;;;6.80;99.90;;;;;;5092158;28;19912;-71
2021/06/01 04:45:21;;;;;;;;;;;6.90;99.90;;;;;;5092118;28;19911;-71
2021/06/01 04:47:46;;;;;;;;;;;6.90;99.90;;;;;;5090993;28;19912;-72
2021/06/01 04:50:12;;;;;;;;;;;7.00;99.90;;;;;;5091638;28;19962;-71
2021/06/01 04:52:38;;;;;;;;;;;7.10;99.90;;;;;;5091938;28;20004;-71
2021/06/01 04:55:04;;;;;;;;;;;7.20;99.90;;;;;;5092016;28;19915;-71
2021/06/01 04:57:30;;;;;;;;;;;7.30;99.90;;;;;;5090965;28;19965;-71
2021/06/01 04:59:55;;;;;;;;;;;7.40;99.90;;;;;;5091716;28;19912;-71
2021/06/01 05:02:21;;;;;;;;;;;7.50;99.90;;;;;;5091764;28;20257;-71
2021/06/01 05:04:46;;;;;;;;;;;7.60;99.90;;;;;;5091432;28;19916;-75
2021/06/01 05:07:12;;;;;;;;;;;7.70;99.90;;;;;;5087789;28;19909;-71
2021/06/01 05:09:38;;;;;;;;;;;7.80;99.90;;;;;;5090971;28;19912;-71
2021/06/01 05:12:04;;;;;;;;;;;7.90;99.90;;;;;;5091337;28;19912;-71
2021/06/01 05:14:29;;;;;;;;;;;8.00;99.90;;;;;;5091808;28;19912;-71
2021/06/01 05:16:55;;;;;;;;;;;8.10;99.90;;;;;;5090712;28;19914;-74
2021/06/01 05:19:20;;;;;;;;;;;8.30;99.90;;;;;;5090980;28;20458;-71
2021/06/01 05:21:46;;;;;;;;;;;8.50;99.90;;;;;;5091548;28;19912;-71
2021/06/01 05:24:11;;;;;;;;;;;8.70;99.90;;;;;;5091159;28;19954;-74
2021/06/01 05:26:38;;;;;;;;;;;8.90;99.90;;;;;;5090492;28;20434;-76
2021/06/01 05:29:03;;;;;;;;;;;9.20;99.90;;;;;;5091227;28;19918;-72
2021/06/01 05:34:00;;;;;;;;;;;9.90;99.90;;;;;;5091106;28;19908;-75
2021/06/01 05:36:25;;;;;;;;;;;10.30;99.90;;;;;;5090434;28;19915;-73
2021/06/01 05:38:51;;;;;;;;;;;10.60;99.90;;;;;;5087542;28;19908;-71
2021/06/01 05:41:17;;;;;;;;;;;11.00;99.90;;;;;;5090911;28;19959;-71
2021/06/01 05:43:42;;;;;;;;;;;11.50;99.90;;;;;;5091247;28;19908;-71
2021/06/01 05:46:08;;;;;;;;;;;11.90;99.90;;;;;;5090396;28;20318;-72
2021/06/01 05:48:34;;;;;;;;;;;12.40;99.90;;;;;;5091105;28;19909;-72
2021/06/01 05:50:59;;;;;;;;;;;12.80;99.90;;;;;;5090819;28;20017;-72
2021/06/01 05:53:25;;;;;;;;;;;13.30;99.90;;;;;;5091226;28;20157;-71
2021/06/01 05:55:52;;;;;;;;;;;13.70;99.90;;;;;;5090218;28;20285;-71
2021/06/01 05:58:17;;;;;;;;;;;13.90;99.90;;;;;;5091007;28;20054;-71
2021/06/01 06:00:43;;;;;;;;;;;14.40;99.90;;;;;;5091184;28;20339;-71
2021/06/01 06:03:08;;;;;;;;;;;14.90;99.80;;;;;;5091195;28;19915;-71
2021/06/01 06:05:34;;;;;;;;;;;15.50;99.80;;;;;;5090293;28;20013;-78
2021/06/01 06:08:06;;;;;;;;;;;15.90;98.70;;;;;;5087141;28;19915;-71
2021/06/01 06:10:32;;;;;;;;;;;16.30;97.70;;;;;;5090536;28;19923;-76
2021/06/01 06:12:58;;;;;;;;;;;16.70;97.10;;;;;;5091038;28;20323;-72
2021/06/01 06:15:23;;;;;;;;;;;17.20;96.50;;;;;;5090797;28;19995;-71
2021/06/01 06:17:56;;;;;;;;;;;17.30;95.70;;;;;;5090201;28;19908;-71
2021/06/01 06:20:21;;;;;;;;;;;17.30;95.50;;;;;;5090614;28;20407;-71
2021/06/01 06:22:47;;;;;;;;;;;17.30;96.00;;;;;;5090873;28;19911;-71
2021/06/01 06:25:13;;;;;;;;;;;17.50;95.70;;;;;;5090712;28;19908;-75
2021/06/01 06:27:39;;;;;;;;;;;17.90;95.20;;;;;;5089964;28;19912;-70
2021/06/01 06:30:06;;;;;;;;;;;18.40;93.70;;;;;;5092196;28;20326;-74
2021/06/01 06:32:31;;;;;;;;;;;19.00;93.70;;;;;;5094552;28;20254;-71
2021/06/01 06:34:57;;;;;;;;;;;19.50;91.80;;;;;;5094342;28;19922;-72
2021/06/01 06:37:22;;;;;;;;;;;19.80;91.40;;;;;;5090002;28;19915;-71
2021/06/01 06:39:48;;;;;;;;;;;20.30;90.50;;;;;;5107243;28;19926;-71
2021/06/01 06:42:14;;;;;;;;;;;20.60;88.80;;;;;;5114949;28;19946;-71
2021/06/01 06:44:42;;;;;;;;;;;20.90;86.20;;;;;;5114937;28;19965;-71
2021/06/01 06:49:38;;;;;;;;;;;21.40;83.70;;;;;;5114290;28;19915;-71
2021/06/01 06:52:06;;;;;;;;;;;21.70;82.10;;;;;;5114438;28;19912;-73
2021/06/01 06:54:31;;;;;;;;;;;22.00;80.90;;;;;;5114565;28;19943;-71
2021/06/01 06:56:56;;;;;;;;;;;22.30;80.80;;;;;;5113805;28;19958;-69
2021/06/01 06:59:22;;;;;;;;;;;22.50;78.90;;;;;;5114396;28;19908;-70
2021/06/01 07:01:47;;;;;;;;;;;23.10;77.00;;;;;;5114337;28;19915;-69
2021/06/01 07:04:13;;;;;;;;;;;23.10;73.90;;;;;;5114560;28;19954;-69
2021/06/01 07:06:39;;;;;;;;;;;23.20;73.00;;;;;;5113389;28;20100;-69
2021/06/01 07:09:05;;;;;;;;;;;23.30;73.50;;;;;;5091720;28;19981;-70
2021/06/01 07:11:30;;;;;;;;;;;23.60;75.00;;;;;;5093910;28;20014;-70
2021/06/01 07:14:02;;;;;;;;;;;23.60;73.10;;;;;;5093606;28;20463;-70
2021/06/01 07:16:27;;;;;;;;;;;23.50;71.00;;;;;;5092931;28;19908;-69
2021/06/01 07:18:53;;;;;;;;;;;23.50;68.50;;;;;;5094159;28;19953;-69
2021/06/01 07:21:18;;;;;;;;;;;23.70;71.60;;;;;;5093301;28;19963;-70
2021/06/01 07:23:44;;;;;;;;;;;24.10;74.10;;;;;;5093422;28;19912;-74
2021/06/01 07:26:10;;;;;;;;;;;24.40;70.60;;;;;;5092722;28;19918;-70
2021/06/01 07:28:36;;;;;;;;;;;24.40;67.20;;;;;;5093557;28;19908;-69
2021/06/01 07:31:03;;;;;;;;;;;24.60;67.70;;;;;;5093463;28;20365;-73
2021/06/01 07:33:29;;;;;;;;;;;24.40;68.60;;;;;;5093926;28;20006;-70
2021/06/01 07:35:54;;;;;;;;;;;24.30;65.20;;;;;;5092111;28;20002;-70
2021/06/01 07:38:20;;;;;;;;;;;24.30;69.10;;;;;;5089690;28;19915;-70
2021/06/01 07:40:45;;;;;;;;;;;24.40;64.80;;;;;;5092967;28;20548;-70
2021/06/01 07:43:11;;;;;;;;;;;24.30;66.70;;;;;;5093293;28;19908;-71
2021/06/01 07:45:36;;;;;;;;;;;24.30;68.60;;;;;;5092411;28;19908;-74
2021/06/01 07:48:02;;;;;;;;;;;24.40;66.60;;;;;;5091633;28;20392;-74
2021/06/01 07:50:28;;;;;;;;;;;24.40;69.50;;;;;;5090387;28;19994;-72
2021/06/01 07:52:54;;;;;;;;;;;24.20;68.40;;;;;;5083402;28;19995;-72
2021/06/01 07:55:19;;;;;;;;;;;24.20;64.30;;;;;;5108138;28;19974;-72
2021/06/01 07:57:45;;;;;;;;;;;23.90;67.60;;;;;;5099006;28;19915;-73
2021/06/01 08:00:11;;;;;;;;;;;23.70;65.20;;;;;;5112798;28;19953;-79
2021/06/01 08:02:36;;;;;;;;;;;23.70;66.00;;;;;;5091421;28;19919;-77
2021/06/01 08:05:03;;;;;;;;;;;24.10;71.60;;;;;;5092131;28;20292;-72
2021/06/01 08:07:29;;;;;;;;;;;24.50;70.40;;;;;;5090307;28;20425;-75
2021/06/01 08:09:54;;;;;;;;;;;25.00;66.80;;;;;;5104711;28;20009;-73
2021/06/01 08:12:20;;;;;;;;;;;24.90;61.10;;;;;;5112914;28;19992;-72
2021/06/01 08:14:45;;;;;;;;;;;24.70;59.70;;;;;;5112818;28;19931;-74
2021/06/01 08:17:12;;;;;;;;;;;24.50;62.50;;;;;;5112115;28;20356;-73
2021/06/01 08:19:40;;;;;;;;;;;24.50;63.40;;;;;;5094297;28;19963;-76
2021/06/01 08:22:13;;;;;;;;;;;24.10;59.30;;;;;;5092303;28;19957;-72
2021/06/01 08:24:38;;;;;;;;;;;23.50;62.20;;;;;;5092399;28;20353;-71
2021/06/01 08:27:04;;;;;;;;;;;23.40;62.20;;;;;;5091421;28;19916;-71
2021/06/01 08:29:30;;;;;;;;;;;23.20;61.20;;;;;;5081394;28;19919;-72
2021/06/01 08:31:55;;;;;;;;;;;23.50;67.60;;;;;;5091371;28;19919;-76
2021/06/01 08:34:21;;;;;;;;;;;24.00;68.80;;;;;;5091561;28;19951;-73
2021/06/01 08:36:46;;;;;;;;;;;24.50;61.10;;;;;;5091580;28;19912;-72
2021/06/01 08:39:12;;;;;;;;;;;24.50;58.70;;;;;;5091804;28;19934;-73
2021/06/01 08:41:38;;;;;;;;;;;24.60;61.00;;;;;;5092125;28;19916;-76
2021/06/01 08:44:05;;;;;;;;;;;24.90;67.60;;;;;;5092450;28;19908;-75
2021/06/01 08:46:32;;;;;;;;;;;25.20;59.60;;;;;;5091926;28;19908;-77
2021/06/01 08:48:58;;;;;;;;;;;25.10;58.40;;;;;;5085798;28;20422;-73
2021/06/01 08:51:24;;;;;;;;;;;25.00;60.40;;;;;;5088813;28;19994;-72
2021/06/01 08:53:51;;;;;;;;;;;25.00;57.50;;;;;;5091077;28;19908;-74
2021/06/01 08:56:17;;;;;;;;;;;24.80;58.50;;;;;;5090886;28;19912;-75
2021/06/01 08:58:43;;;;;;;;;;;24.40;59.30;;;;;;5091686;28;19908;-76
2021/06/01 09:01:09;;;;;;;;;;;24.40;58.90;;;;;;5091529;28;19951;-74
2021/06/01 09:03:35;;;;;;;;;;;24.60;59.30;;;;;;5091637;28;19923;-74
2021/06/01 09:06:05;;;;;;;;;;;24.90;60.00;;;;;;5090962;28;19915;-74
2021/06/01 09:08:45;;;;;;;;;;;25.00;55.80;;;;;;5087521;28;19912;-73
2021/06/01 09:11:16;;;;;;;;;;;24.50;53.20;;;;;;5091539;28;20377;-72
2021/06/01 09:14:09;;;;;;;;;;;24.40;55.40;;;;;;5091853;28;20304;-74
2021/06/01 09:22:03;;;;;;;;;;;24.70;55.10;;;;;;5091325;28;19915;-73
2021/06/01 09:24:29;;;;;;;;;;;24.90;57.00;;;;;;5090590;28;20078;-73
2021/06/01 09:27:12;;;;;;;;;;;24.80;53.80;;;;;;5090413;28;20331;-76
2021/06/01 09:29:46;;;;;;;;;;;24.30;58.60;;;;;;5090754;28;19995;-72
2021/06/01 09:32:12;;;;;;;;;;;24.10;55.00;;;;;;5090639;28;20388;-72
2021/06/01 09:34:49;;;;;;;;;;;23.80;55.70;;;;;;5089568;28;20000;-73
2021/06/01 09:37:15;;;;;;;;;;;23.60;56.80;;;;;;5087115;28;19909;-74
2021/06/01 09:39:41;;;;;;;;;;;24.00;62.40;;;;;;5090662;28;19912;-72
2021/06/01 09:42:28;;;;;;;;;;;24.60;61.60;;;;;;5091093;28;19919;-72
2021/06/01 09:45:20;;;;;;;;;;;25.10;60.90;;;;;;5090566;28;20325;-73
2021/06/01 09:47:46;;;;;;;;;;;25.10;57.40;;;;;;5087524;28;19908;-73
2021/06/01 09:50:22;;;;;;;;;;;25.30;57.90;;;;;;5090685;28;19922;-72
2021/06/01 09:52:49;;;;;;;;;;;25.90;58.70;;;;;;5090932;28;19908;-72
2021/06/01 09:55:25;;;;;;;;;;;26.40;55.10;;;;;;5091013;28;19958;-74
2021/06/01 09:57:51;;;;;;;;;;;26.50;52.10;;;;;;5090374;28;19912;-72
2021/06/01 10:00:17;;;;;;;;;;;26.40;53.10;;;;;;5084594;28;19964;-72
2021/06/01 10:02:43;;;;;;;;;;;26.30;56.60;;;;;;5107514;28;19951;-72
2021/06/01 10:05:18;;;;;;;;;;;26.40;54.70;;;;;;5092788;28;19912;-72
2021/06/01 10:07:43;;;;;;;;;;;26.50;53.50;;;;;;5090960;28;19994;-72
2021/06/01 10:10:13;;;;;;;;;;;26.30;50.20;;;;;;5091890;28;19964;-72
2021/06/01 10:12:39;;;;;;;;;;;26.30;57.80;;;;;;5094270;28;20369;-72
2021/06/01 10:15:05;;;;;;;;;;;26.50;52.80;;;;;;5094827;28;19912;-73
2021/06/01 10:17:30;;;;;;;;;;;26.60;54.20;;;;;;5093983;28;19908;-71
2021/06/01 10:19:56;;;;;;;;;;;27.10;53.00;;;;;;5094436;28;19919;-72
2021/06/01 10:22:22;;;;;;;;;;;27.30;49.30;;;;;;5090360;28;19995;-72
2021/06/01 10:24:47;;;;;;;;;;;27.30;51.60;;;;;;5094233;28;19919;-70
2021/06/01 10:27:13;;;;;;;;;;;27.40;50.40;;;;;;5090851;28;19908;-71
2021/06/01 10:29:38;;;;;;;;;;;27.30;50.20;;;;;;5105633;28;19914;-71
2021/06/01 10:32:04;;;;;;;;;;;27.50;52.60;;;;;;5092727;28;20369;-73
2021/06/01 10:34:31;;;;;;;;;;;27.10;47.40;;;;;;5094248;28;20285;-70
2021/06/01 10:50:37;;;;;;;;;;;27.10;51.30;;;;;;5093789;28;20301;-71
2021/06/01 10:53:05;;;;;;;;;;;27.30;46.20;;;;;;5090710;28;19909;-71
2021/06/01 10:56:01;;;;;;;;;;;27.20;51.30;;;;;;5094019;28;20041;-74
2021/06/01 10:58:28;;;;;;;;;;;27.20;47.40;;;;;;5085191;28;19985;-74
2021/06/01 11:04:06;;;;;;;;;;;27.10;48.40;;;;;;5091743;28;19915;-72
2021/06/01 11:06:58;;;;;;;;;;;27.40;46.60;;;;;;5092967;28;19909;-72
2021/06/01 11:09:33;;;;;;;;;;;27.20;45.00;;;;;;5094046;28;19970;-71
2021/06/01 11:12:02;;;;;;;;;;;27.00;46.80;;;;;;5093748;28;19916;-71
2021/06/01 11:14:29;;;;;;;;;;;27.10;46.60;;;;;;5093819;28;19908;-72
2021/06/01 11:16:55;;;;;;;;;;;27.40;52.60;;;;;;5092761;28;19916;-72
2021/06/01 11:19:24;;;;;;;;;;;27.60;46.50;;;;;;5093636;28;19970;-70
2021/06/01 11:22:03;;;;;;;;;;;27.60;50.20;;;;;;5093456;28;20301;-70
2021/06/01 11:32:50;;;;;;;;;;;26.70;45.70;;;;;;5110276;28;20272;-71
2021/06/01 11:35:25;;;;;;;;;;;26.60;50.50;;;;;;5099134;28;20018;-73
2021/06/01 11:37:59;;;;;;;;;;;26.70;48.10;;;;;;5084230;28;19909;-71
2021/06/01 11:43:01;;;;;;;;;;;26.60;49.50;;;;;;5093311;28;20271;-70
2021/06/01 11:45:39;;;;;;;;;;;26.50;49.30;;;;;;5092806;28;19912;-72
2021/06/01 11:48:23;;;;;;;;;;;26.60;48.40;;;;;;5092690;28;20082;-72
2021/06/01 11:51:14;;;;;;;;;;;26.60;51.10;;;;;;5092682;28;20257;-70
2021/06/01 11:53:47;;;;;;;;;;;26.90;47.60;;;;;;5089476;28;19960;-72
2021/06/01 11:56:13;;;;;;;;;;;26.80;48.00;;;;;;5091712;28;19908;-72
2021/06/01 12:02:04;;;;;;;;;;;26.80;45.60;;;;;;5092798;28;19918;-74
2021/06/01 12:04:58;;;;;;;;;;;27.10;47.60;;;;;;5092475;28;20006;-72
2021/06/01 12:18:38;;;;;;;;;;;28.10;50.90;;;;;;5092546;28;19920;-72
2021/06/01 12:21:04;;;;;;;;;;;28.10;44.60;;;;;;5092168;28;20288;-70
2021/06/01 12:23:35;;;;;;;;;;;28.10;47.40;;;;;;5089125;28;20502;-70
2021/06/01 12:26:05;;;;;;;;;;;28.00;45.40;;;;;;5091708;28;19965;-70
2021/06/01 12:31:18;;;;;;;;;;;28.40;45.90;;;;;;5088822;28;20022;-70
2021/06/01 12:33:55;;;;;;;;;;;28.20;46.00;;;;;;5084355;28;20346;-71
2021/06/01 12:42:10;;;;;;;;;;;28.10;46.20;;;;;;5092299;28;19923;-72
2021/06/01 12:44:37;;;;;;;;;;;27.90;46.80;;;;;;5092610;28;19951;-74
2021/06/01 13:14:26;;;;;;;;;;;27.90;47.60;;;;;;5111765;28;19961;-71
2021/06/01 13:19:46;;;;;;;;;;;27.50;48.90;;;;;;5111651;28;19950;-71
2021/06/01 13:30:33;;;;;;;;;;;27.30;49.20;;;;;;5100278;28;19969;-72
2021/06/01 13:38:39;;;;;;;;;;;27.50;49.00;;;;;;5089072;28;19954;-70
2021/06/01 13:46:41;;;;;;;;;;;27.60;47.30;;;;;;5090723;28;19980;-71
2021/06/01 13:53:05;;;;;;;;;;;27.80;48.00;;;;;;5069030;28;20377;-72
2021/06/01 14:21:21;;;;;;;;;;;28.60;47.60;;;;;;5090683;28;19912;-70
2021/06/01 15:09:56;;;;;;;;;;;27.70;45.70;;;;;;5114093;28;19964;-72
2021/06/01 15:31:28;;;;;;;;;;;26.90;50.00;;;;;;5092524;28;20362;-71
2021/06/01 15:47:52;;;;;;;;;;;26.30;49.30;;;;;;5113052;28;19919;-71
2021/06/01 16:31:24;;;;;;;;;;;25.30;51.60;;;;;;5091836;28;20015;-72
2021/06/01 16:41:39;;;;;;;;;;;25.20;50.10;;;;;;5091642;28;20323;-72
2021/06/01 17:03:07;;;;;;;;;;;25.00;51.00;;;;;;5111934;28;19908;-71
2021/06/01 17:06:27;;;;;;;;;;;25.10;52.10;;;;;;5090771;28;19983;-71
2021/06/01 17:11:24;;;;;;;;;;;24.80;52.30;;;;;;5086785;28;19961;-71
2021/06/01 17:13:51;;;;;;;;;;;24.80;53.10;;;;;;5091109;28;19944;-71
2021/06/01 17:19:18;;;;;;;;;;;24.50;53.50;;;;;;5091613;28;20349;-71
2021/06/01 17:35:14;;;;;;;;;;;24.00;54.00;;;;;;5091376;28;19995;-71
2021/06/01 17:37:40;;;;;;;;;;;23.90;53.70;;;;;;5090357;28;20003;-71
2021/06/01 17:40:08;;;;;;;;;;;23.90;53.40;;;;;;5088669;28;20428;-71
2021/06/01 17:42:34;;;;;;;;;;;23.70;53.60;;;;;;5090183;28;19991;-71
2021/06/01 17:45:00;;;;;;;;;;;23.60;53.10;;;;;;5091258;28;20377;-71
2021/06/01 17:47:27;;;;;;;;;;;23.60;54.50;;;;;;5090434;28;19908;-72
2021/06/01 17:49:54;;;;;;;;;;;23.50;53.60;;;;;;5091332;28;19908;-72
2021/06/01 17:52:23;;;;;;;;;;;23.50;54.80;;;;;;5090932;28;19912;-72
2021/06/01 17:54:49;;;;;;;;;;;23.40;55.50;;;;;;5091358;28;20308;-69
2021/06/01 17:57:15;;;;;;;;;;;23.40;54.70;;;;;;5090380;28;19953;-71
2021/06/01 17:59:41;;;;;;;;;;;23.30;54.90;;;;;;5091061;28;19912;-71
2021/06/01 18:02:10;;;;;;;;;;;23.30;53.90;;;;;;5091010;28;20011;-71
2021/06/01 18:04:36;;;;;;;;;;;23.20;53.70;;;;;;5089555;28;20378;-71
2021/06/01 18:07:04;;;;;;;;;;;23.20;54.80;;;;;;5089861;28;19958;-71
2021/06/01 19:26:27;;;;;;;;;;;18.80;67.10;;;;;;5093621;28;19912;-71
2021/06/01 19:50:17;;;;;;;;;;;16.10;76.70;;;;;;5093528;28;19915;-71
2021/06/01 19:52:44;;;;;;;;;;;15.90;77.40;;;;;;5092793;28;19912;-72
2021/06/01 19:55:10;;;;;;;;;;;15.80;77.70;;;;;;5093476;28;19912;-71
2021/06/01 19:57:36;;;;;;;;;;;15.70;77.90;;;;;;5091950;28;19912;-71
2021/06/01 20:00:03;;;;;;;;;;;15.60;78.50;;;;;;5092937;28;20387;-71
2021/06/01 20:02:32;;;;;;;;;;;15.40;79.00;;;;;;5092944;28;20341;-71
2021/06/01 20:04:58;;;;;;;;;;;15.30;80.00;;;;;;5092890;28;20288;-71
2021/06/01 20:07:26;;;;;;;;;;;15.20;80.30;;;;;;5091778;28;19936;-71
2021/06/01 20:09:51;;;;;;;;;;;15.10;80.70;;;;;;5092182;28;19977;-72
2021/06/01 20:12:17;;;;;;;;;;;15.00;81.20;;;;;;5080891;28;20349;-71
2021/06/01 20:14:43;;;;;;;;;;;14.90;81.20;;;;;;5092495;28;19991;-71
2021/06/01 20:17:32;;;;;;;;;;;14.80;81.60;;;;;;5091876;28;20448;-71
2021/06/01 20:20:00;;;;;;;;;;;14.70;82.10;;;;;;5086747;28;19912;-71
2021/06/01 20:22:27;;;;;;;;;;;14.60;82.90;;;;;;5092310;28;20363;-71
2021/06/01 20:25:00;;;;;;;;;;;14.40;83.20;;;;;;5092328;28;19919;-72
2021/06/01 20:27:25;;;;;;;;;;;14.40;84.30;;;;;;5091719;28;19908;-71
2021/06/01 20:29:54;;;;;;;;;;;14.30;84.50;;;;;;5092195;28;20472;-72
2021/06/01 20:35:11;;;;;;;;;;;14.20;84.70;;;;;;5092608;28;19919;-72
2021/06/01 20:37:37;;;;;;;;;;;14.20;85.10;;;;;;5091252;28;19908;-71
2021/06/01 20:40:02;;;;;;;;;;;14.20;85.30;;;;;;5091950;28;19968;-71
2021/06/01 20:42:28;;;;;;;;;;;14.00;85.50;;;;;;5084580;28;19953;-71
2021/06/01 20:44:54;;;;;;;;;;;14.00;85.70;;;;;;5091888;28;20196;-71
2021/06/01 20:47:20;;;;;;;;;;;14.00;86.70;;;;;;5091394;28;19908;-71
2021/06/01 20:49:47;;;;;;;;;;;13.90;86.20;;;;;;5091193;28;19965;-71
2021/06/01 20:52:12;;;;;;;;;;;13.90;86.70;;;;;;5091722;28;20374;-71
2021/06/01 20:54:38;;;;;;;;;;;13.80;87.40;;;;;;5091855;28;19916;-71
2021/06/01 20:57:04;;;;;;;;;;;13.60;87.90;;;;;;5091286;28;19916;-71
2021/06/01 20:59:30;;;;;;;;;;;13.50;88.00;;;;;;5091554;28;19935;-70
2021/06/01 21:01:55;;;;;;;;;;;13.40;88.30;;;;;;5091751;28;20361;-72
2021/06/01 21:04:21;;;;;;;;;;;13.40;88.80;;;;;;5091608;28;19918;-71
2021/06/01 21:06:47;;;;;;;;;;;13.30;89.10;;;;;;5090551;28;19931;-72
2021/06/01 21:09:13;;;;;;;;;;;13.20;89.50;;;;;;5091551;28;19907;-70
2021/06/01 21:11:40;;;;;;;;;;;13.20;90.00;;;;;;5082961;28;20292;-71
2021/06/01 21:14:06;;;;;;;;;;;13.10;90.10;;;;;;5091190;28;19998;-70
2021/06/01 21:16:32;;;;;;;;;;;13.00;90.30;;;;;;5090763;28;19954;-71